createdAt,value
2023-07-31T00:00:10.104Z,100800.38
2023-07-31T00:02:42.958Z,100787.91
2023-07-31T00:05:14.765Z,100784.84
2023-07-31T00:07:46.574Z,100783.09
2023-07-31T00:10:18.313Z,100784.84
2023-07-31T00:12:49.891Z,100786.69
2023-07-31T00:15:21.422Z,100782.97
2023-07-31T00:17:53.062Z,100785.69
2023-07-31T00:20:24.929Z,100781.41
2023-07-31T00:22:57.296Z,100778.00
2023-07-31T00:25:29.059Z,100777.50
2023-07-31T00:28:00.845Z,100775.75
2023-07-31T00:30:33.263Z,100773.56
2023-07-31T00:33:05.205Z,100768.25
2023-07-31T00:35:36.904Z,100779.34
2023-07-31T00:38:08.595Z,100768.41
2023-07-31T00:40:40.364Z,100768.41
2023-07-31T00:43:12.116Z,100768.41
2023-07-31T00:45:43.772Z,100765.66
2023-07-31T00:48:15.515Z,100761.09
2023-07-31T00:50:47.152Z,100761.94
2023-07-31T00:53:19.228Z,100759.88
2023-07-31T00:55:50.947Z,100756.28
2023-07-31T00:58:22.670Z,100765.19
2023-07-31T01:00:54.426Z,100756.13
2023-07-31T01:03:26.341Z,100762.09
2023-07-31T01:06:16.989Z,100758.34
2023-07-31T01:09:03.903Z,100760.91
2023-07-31T01:11:39.755Z,100754.06
2023-07-31T01:14:11.429Z,100753.88
2023-07-31T01:16:43.397Z,100751.16
2023-07-31T01:19:19.091Z,100748.28
2023-07-31T01:22:08.528Z,100737.16
2023-07-31T01:24:55.826Z,100747.91
2023-07-31T01:27:32.181Z,100741.25
2023-07-31T01:30:15.666Z,100741.25
2023-07-31T01:32:48.821Z,100732.72
2023-07-31T01:35:20.572Z,100731.69
2023-07-31T01:37:55.208Z,100737.16
2023-07-31T01:40:27.159Z,100723.50
2023-07-31T01:42:58.735Z,100720.41
2023-07-31T01:45:30.369Z,100720.41
2023-07-31T01:48:02.009Z,100718.69
2023-07-31T01:50:33.635Z,100713.22
2023-07-31T01:53:05.520Z,100711.34
2023-07-31T01:55:37.134Z,100707.41
2023-07-31T01:58:08.705Z,100705.69
2023-07-31T02:00:40.450Z,100694.09
2023-07-31T02:03:12.160Z,100680.41
2023-07-31T02:05:48.613Z,100684.84
2023-07-31T02:08:20.252Z,100696.63
2023-07-31T02:10:52.894Z,100692.72
2023-07-31T02:13:24.502Z,100703.66
2023-07-31T02:15:56.274Z,100710.84
2023-07-31T02:18:27.897Z,100698.34
2023-07-31T02:20:59.760Z,100698.53
2023-07-31T02:23:31.431Z,100677.50
2023-07-31T02:26:03.252Z,100685.88
2023-07-31T02:28:34.847Z,100677.31
2023-07-31T02:31:06.614Z,100686.41
2023-07-31T02:33:38.235Z,100678.72
2023-07-31T02:36:09.841Z,100680.41
2023-07-31T02:38:41.459Z,100679.75
2023-07-31T02:41:13.060Z,100680.94
2023-07-31T02:43:44.803Z,100672.03
2023-07-31T02:46:16.444Z,100678.22
2023-07-31T02:48:48.180Z,100667.78
2023-07-31T02:51:20.027Z,100662.50
2023-07-31T02:53:51.723Z,100665.91
2023-07-31T02:56:23.590Z,100665.06
2023-07-31T02:58:55.437Z,100669.00
2023-07-31T03:01:27.213Z,100669.16
2023-07-31T03:03:58.970Z,100663.69
2023-07-31T03:06:30.526Z,100666.09
2023-07-31T03:09:02.098Z,100663.56
2023-07-31T03:11:33.732Z,100654.66
2023-07-31T03:14:05.341Z,100664.91
2023-07-31T03:16:37.430Z,100660.47
2023-07-31T03:19:09.461Z,100671.41
2023-07-31T03:21:41.292Z,100658.41
2023-07-31T03:24:13.308Z,100653.63
2023-07-31T03:26:45.097Z,100653.63
2023-07-31T03:29:16.707Z,100662.34
2023-07-31T03:31:48.359Z,100658.19
2023-07-31T03:34:20.102Z,100662.63
2023-07-31T03:36:51.656Z,100673.03
2023-07-31T03:39:23.209Z,100662.28
2023-07-31T03:41:54.956Z,100657.00
2023-07-31T03:44:26.613Z,100657.00
2023-07-31T03:46:58.238Z,100654.41
2023-07-31T03:49:29.971Z,100653.94
2023-07-31T03:52:01.629Z,100664.34
2023-07-31T03:54:33.290Z,100648.81
2023-07-31T03:57:05.420Z,100645.91
2023-07-31T03:59:36.964Z,100642.16
2023-07-31T04:02:08.606Z,100641.66
2023-07-31T04:04:40.135Z,100650.16
2023-07-31T04:07:11.734Z,100651.69
2023-07-31T04:09:43.326Z,100634.31
2023-07-31T04:12:14.933Z,100636.34
2023-07-31T04:14:46.547Z,100637.19
2023-07-31T04:17:21.316Z,100641.97
2023-07-31T04:19:53.015Z,100632.75
2023-07-31T04:22:24.772Z,100632.75
2023-07-31T04:24:56.358Z,100635.66
2023-07-31T04:27:27.978Z,100636.34
2023-07-31T04:29:59.565Z,100639.41
2023-07-31T04:32:31.291Z,100628.69
2023-07-31T04:35:03.692Z,100631.91
2023-07-31T04:37:35.312Z,100626.78
2023-07-31T04:40:07.495Z,100623.38
2023-07-31T04:42:39.155Z,100636.16
2023-07-31T04:45:11.013Z,100629.53
2023-07-31T04:47:42.732Z,100633.97
2023-07-31T04:50:14.295Z,100627.13
2023-07-31T04:52:45.982Z,100624.56
2023-07-31T04:55:17.729Z,100619.94
2023-07-31T04:57:49.440Z,100634.47
2023-07-31T05:00:21.197Z,100620.47
2023-07-31T05:02:52.901Z,100629.00
2023-07-31T05:05:24.634Z,100620.81
2023-07-31T05:07:56.218Z,100616.91
2023-07-31T05:10:27.752Z,100617.75
2023-07-31T05:12:59.322Z,100623.03
2023-07-31T05:15:30.940Z,100604.59
2023-07-31T05:18:02.650Z,100612.47
2023-07-31T05:20:34.228Z,100610.44
2023-07-31T05:23:05.874Z,100616.75
2023-07-31T05:25:37.443Z,100612.78
2023-07-31T05:28:09.226Z,100597.59
2023-07-31T05:30:40.897Z,100591.13
2023-07-31T05:33:14.777Z,100594.53
2023-07-31T05:35:46.766Z,100589.63
2023-07-31T05:38:18.418Z,100588.75
2023-07-31T05:40:50.275Z,100587.38
2023-07-31T05:43:21.938Z,100582.44
2023-07-31T05:45:53.608Z,100573.91
2023-07-31T05:48:25.284Z,100575.25
2023-07-31T05:50:56.951Z,100582.25
2023-07-31T05:53:28.698Z,100583.81
2023-07-31T05:56:00.311Z,100580.22
2023-07-31T05:58:31.959Z,100585.66
2023-07-31T06:01:03.621Z,100589.25
2023-07-31T06:03:35.333Z,100581.06
2023-07-31T06:06:07.005Z,100591.31
2023-07-31T06:08:38.670Z,100584.47
2023-07-31T06:11:10.528Z,100589.41
2023-07-31T06:13:44.119Z,100593.00
2023-07-31T06:16:16.664Z,100583.78
2023-07-31T06:18:48.617Z,100586.19
2023-07-31T06:21:20.668Z,100582.56
2023-07-31T06:23:55.453Z,100595.53
2023-07-31T06:26:27.166Z,100572.13
2023-07-31T06:28:58.953Z,100591.94
2023-07-31T06:31:30.816Z,100591.75
2023-07-31T06:34:02.506Z,100591.28
2023-07-31T06:36:36.123Z,100589.56
2023-07-31T06:39:07.743Z,100587.34
2023-07-31T06:41:39.583Z,100583.94
2023-07-31T06:44:11.904Z,100592.47
2023-07-31T06:46:43.982Z,100589.19
2023-07-31T06:49:18.141Z,100574.84
2023-07-31T06:51:49.807Z,100571.44
2023-07-31T06:54:21.394Z,100578.81
2023-07-31T06:56:53.128Z,100576.56
2023-07-31T06:59:24.663Z,100572.31
2023-07-31T07:01:56.358Z,100572.59
2023-07-31T07:04:27.895Z,100573.47
2023-07-31T07:06:59.490Z,100564.41
2023-07-31T07:09:31.069Z,100572.09
2023-07-31T07:12:02.888Z,100569.00
2023-07-31T07:14:34.437Z,100566.13
2023-07-31T07:17:06.497Z,100552.97
2023-07-31T07:19:44.571Z,100563.56
2023-07-31T07:22:16.325Z,100558.75
2023-07-31T07:24:48.087Z,100552.59
2023-07-31T07:27:19.942Z,100555.31
2023-07-31T07:29:53.756Z,100545.56
2023-07-31T07:32:25.555Z,100547.47
2023-07-31T07:34:57.725Z,100544.22
2023-07-31T07:37:29.517Z,100545.31
2023-07-31T07:40:01.145Z,100535.19
2023-07-31T07:42:32.893Z,100544.13
2023-07-31T07:45:05.121Z,100536.59
2023-07-31T07:47:36.951Z,100538.38
2023-07-31T07:50:10.134Z,100536.31
2023-07-31T07:52:42.512Z,100531.13
2023-07-31T07:55:14.154Z,100531.38
2023-07-31T07:57:46.113Z,100531.91
2023-07-31T08:00:18.591Z,100524.22
2023-07-31T08:02:50.348Z,100533.72
2023-07-31T08:05:22.332Z,100516.41
2023-07-31T08:07:54.167Z,100515.91
2023-07-31T08:10:25.943Z,100524.91
2023-07-31T08:12:58.005Z,100514.13
2023-07-31T08:15:29.803Z,100509.50
2023-07-31T08:18:01.898Z,100507.41
2023-07-31T08:20:33.468Z,100505.25
2023-07-31T08:23:05.431Z,100500.81
2023-07-31T08:25:37.678Z,100507.88
2023-07-31T08:28:09.460Z,100509.25
2023-07-31T08:30:41.180Z,100514.50
2023-07-31T08:33:12.950Z,100514.50
2023-07-31T08:35:44.689Z,100510.72
2023-07-31T08:38:17.361Z,100502.50
2023-07-31T08:40:48.929Z,100501.28
2023-07-31T08:43:22.092Z,100491.66
2023-07-31T08:45:54.242Z,100503.97
2023-07-31T08:48:27.302Z,100497.13
2023-07-31T08:50:58.955Z,100488.06
2023-07-31T08:53:30.981Z,100487.75
2023-07-31T08:56:03.606Z,100498.44
2023-07-31T08:58:37.453Z,100489.44
2023-07-31T09:01:09.718Z,100487.13
2023-07-31T09:03:44.011Z,100488.50
2023-07-31T09:06:19.510Z,100489.28
2023-07-31T09:08:52.320Z,100488.41
2023-07-31T09:11:25.537Z,100488.69
2023-07-31T09:13:58.965Z,100481.47
2023-07-31T09:16:33.295Z,100488.31
2023-07-31T09:19:06.332Z,100479.25
2023-07-31T09:21:49.035Z,100469.34
2023-07-31T09:24:31.590Z,100469.00
2023-07-31T09:27:03.541Z,100467.59
2023-07-31T09:29:35.148Z,100477.28
2023-07-31T09:32:17.505Z,100468.41
2023-07-31T09:34:49.149Z,100464.31
2023-07-31T09:37:20.958Z,100454.91
2023-07-31T09:39:56.100Z,100451.41
2023-07-31T09:42:28.273Z,100446.81
2023-07-31T09:45:10.548Z,100453.19
2023-07-31T09:47:48.751Z,100450.59
2023-07-31T09:50:25.783Z,100450.25
2023-07-31T09:52:57.925Z,100443.47
2023-07-31T09:55:31.004Z,100437.06
2023-07-31T09:58:10.398Z,100441.53
2023-07-31T10:00:41.998Z,100432.53
2023-07-31T10:03:18.974Z,100420.22
2023-07-31T10:05:51.954Z,100420.03
2023-07-31T10:08:31.088Z,100416.84
2023-07-31T10:11:04.003Z,100408.28
2023-07-31T10:13:35.688Z,100406.97
2023-07-31T10:16:07.494Z,100408.78
2023-07-31T10:18:41.037Z,100415.78
2023-07-31T10:21:12.853Z,100401.91
2023-07-31T10:23:46.038Z,100403.06
2023-07-31T10:26:20.235Z,100406.03
2023-07-31T10:28:54.046Z,100400.63
2023-07-31T10:31:26.350Z,100399.03
2023-07-31T10:34:00.790Z,100396.13
2023-07-31T10:36:32.459Z,100382.91
2023-07-31T10:39:05.561Z,100384.41
2023-07-31T10:41:37.382Z,100383.88
2023-07-31T10:44:09.638Z,100375.56
2023-07-31T10:46:41.352Z,100379.03
2023-07-31T10:49:22.433Z,100380.09
2023-07-31T10:51:57.069Z,100368.00
2023-07-31T10:54:29.081Z,100365.53
2023-07-31T10:57:00.864Z,100371.03
2023-07-31T10:59:36.320Z,100370.63
2023-07-31T11:02:27.062Z,100364.31
2023-07-31T11:05:11.868Z,100358.28
2023-07-31T11:07:50.533Z,100366.00
2023-07-31T11:10:24.120Z,100364.00
2023-07-31T11:12:55.721Z,100359.88
2023-07-31T11:15:28.640Z,100351.81
2023-07-31T11:18:04.576Z,100354.94
2023-07-31T11:20:38.169Z,100361.06
2023-07-31T11:23:11.455Z,100360.41
2023-07-31T11:25:43.437Z,100350.94
2023-07-31T11:28:16.495Z,100346.63
2023-07-31T11:30:48.541Z,100341.03
2023-07-31T11:33:20.162Z,100359.75
2023-07-31T11:35:51.871Z,100357.47
2023-07-31T11:38:28.418Z,100351.47
2023-07-31T11:41:04.867Z,100348.78
2023-07-31T11:43:37.711Z,100353.69
2023-07-31T11:46:10.692Z,100345.81
2023-07-31T11:48:42.517Z,100364.34
2023-07-31T11:51:15.786Z,100339.47
2023-07-31T11:53:52.869Z,100338.63
2023-07-31T11:56:25.248Z,100340.31
2023-07-31T11:59:00.913Z,100334.31
2023-07-31T12:01:33.315Z,100343.59
2023-07-31T12:04:05.298Z,100326.69
2023-07-31T12:06:39.071Z,100320.41
2023-07-31T12:09:10.999Z,100323.44
2023-07-31T12:11:47.604Z,100316.78
2023-07-31T12:14:24.980Z,100308.41
2023-07-31T12:16:58.315Z,100302.56
2023-07-31T12:19:31.611Z,100313.19
2023-07-31T12:22:03.710Z,100318.88
2023-07-31T12:24:35.326Z,100309.94
2023-07-31T12:27:15.349Z,100308.41
2023-07-31T12:29:47.102Z,100305.22
2023-07-31T12:32:22.310Z,100309.78
2023-07-31T12:34:53.867Z,100305.56
2023-07-31T12:37:25.511Z,100299.31
2023-07-31T12:40:00.228Z,100304.66
2023-07-31T12:42:32.380Z,100288.75
2023-07-31T12:45:04.999Z,100289.44
2023-07-31T12:47:36.648Z,100281.28
2023-07-31T12:50:08.705Z,100283.75
2023-07-31T12:52:40.362Z,100277.88
2023-07-31T12:55:12.136Z,100270.78
2023-07-31T12:57:43.701Z,100279.94
2023-07-31T13:00:15.809Z,100278.53
2023-07-31T13:02:47.483Z,100288.66
2023-07-31T13:05:20.822Z,100275.06
2023-07-31T13:07:53.327Z,100275.44
2023-07-31T13:10:25.373Z,100274.88
2023-07-31T13:12:57.370Z,100271.53
2023-07-31T13:15:28.926Z,100267.72
2023-07-31T13:18:00.769Z,100264.94
2023-07-31T13:20:32.562Z,100269.66
2023-07-31T13:23:04.195Z,100267.06
2023-07-31T13:25:35.750Z,100260.66
2023-07-31T13:28:07.502Z,100261.63
2023-07-31T13:30:39.123Z,100264.22
2023-07-31T13:33:25.196Z,100256.50
2023-07-31T13:36:01.487Z,100247.94
2023-07-31T13:38:33.161Z,100242.59
2023-07-31T13:41:05.322Z,100251.84
2023-07-31T13:43:37.668Z,100248.69
2023-07-31T13:46:12.054Z,100244.88
2023-07-31T13:48:43.785Z,100242.56
2023-07-31T13:51:15.367Z,100234.53
2023-07-31T13:53:46.880Z,100241.28
2023-07-31T13:56:18.476Z,100239.59
2023-07-31T13:58:50.121Z,100234.81
2023-07-31T14:01:21.833Z,100245.88
2023-07-31T14:03:53.529Z,100243.72
2023-07-31T14:06:25.261Z,100244.63
2023-07-31T14:08:56.805Z,100241.81
2023-07-31T14:11:28.641Z,100234.84
2023-07-31T14:14:00.231Z,100234.63
2023-07-31T14:16:31.965Z,100225.00
2023-07-31T14:19:03.915Z,100228.41
2023-07-31T14:21:35.851Z,100233.50
2023-07-31T14:24:07.449Z,100230.97
2023-07-31T14:26:39.280Z,100236.69
2023-07-31T14:29:11.011Z,100240.97
2023-07-31T14:31:42.892Z,100241.72
2023-07-31T14:34:14.670Z,100233.34
2023-07-31T14:36:47.505Z,100235.50
2023-07-31T14:39:19.046Z,100236.81
2023-07-31T14:41:50.686Z,100234.91
2023-07-31T14:44:22.269Z,100231.53
2023-07-31T14:46:53.957Z,100238.88
2023-07-31T14:49:25.628Z,100247.84
2023-07-31T14:51:57.296Z,100247.97
2023-07-31T14:54:28.913Z,100244.38
2023-07-31T14:57:00.498Z,100244.00
2023-07-31T14:59:32.043Z,100238.06
2023-07-31T15:02:04.118Z,100236.72
2023-07-31T15:04:36.594Z,100237.47
2023-07-31T15:07:08.375Z,100248.84
2023-07-31T15:09:39.982Z,100246.00
2023-07-31T15:12:11.634Z,100262.84
2023-07-31T15:14:43.391Z,100268.81
2023-07-31T15:17:14.992Z,100265.72
2023-07-31T15:19:46.630Z,100263.03
2023-07-31T15:22:18.357Z,100264.19
2023-07-31T15:24:50.213Z,100259.75
2023-07-31T15:27:21.912Z,100249.63
2023-07-31T15:29:53.622Z,100252.94
2023-07-31T15:32:25.289Z,100256.38
2023-07-31T15:34:57.006Z,100249.69
2023-07-31T15:37:28.610Z,100240.44
2023-07-31T15:40:00.240Z,100242.56
2023-07-31T15:42:34.722Z,100229.41
2023-07-31T15:45:08.198Z,100233.22
2023-07-31T15:47:40.146Z,100227.56
2023-07-31T15:50:11.931Z,100230.41
2023-07-31T15:52:43.674Z,100233.53
2023-07-31T15:55:15.313Z,100236.84
2023-07-31T15:57:47.031Z,100234.66
2023-07-31T16:00:19.012Z,100240.09
2023-07-31T16:02:50.656Z,100247.22
2023-07-31T16:05:22.312Z,100242.13
2023-07-31T16:07:53.957Z,100235.41
2023-07-31T16:10:25.602Z,100232.84
2023-07-31T16:12:57.253Z,100229.91
2023-07-31T16:15:29.490Z,100214.94
2023-07-31T16:18:01.098Z,100206.25
2023-07-31T16:20:32.853Z,100213.44
2023-07-31T16:23:04.545Z,100212.38
2023-07-31T16:25:36.171Z,100203.47
2023-07-31T16:28:07.865Z,100197.38
2023-07-31T16:30:39.608Z,100200.13
2023-07-31T16:33:11.269Z,100190.16
2023-07-31T16:35:42.834Z,100197.75
2023-07-31T16:38:14.461Z,100188.53
2023-07-31T16:40:48.297Z,100190.69
2023-07-31T16:43:20.070Z,100196.22
2023-07-31T16:45:52.345Z,100192.88
2023-07-31T16:48:24.520Z,100180.88
2023-07-31T16:50:56.098Z,100179.81
2023-07-31T16:53:27.800Z,100172.22
2023-07-31T16:56:00.838Z,100159.75
2023-07-31T16:58:32.511Z,100154.94
2023-07-31T17:01:05.296Z,100151.56
2023-07-31T17:03:37.065Z,100150.31
2023-07-31T17:06:08.714Z,100148.22
2023-07-31T17:08:40.287Z,100146.94
2023-07-31T17:11:11.960Z,100151.19
2023-07-31T17:13:43.695Z,100141.91
2023-07-31T17:16:15.496Z,100154.97
2023-07-31T17:18:47.912Z,100145.50
2023-07-31T17:21:19.571Z,100144.84
2023-07-31T17:23:51.154Z,100143.59
2023-07-31T17:26:23.778Z,100146.13
2023-07-31T17:28:55.542Z,100154.81
2023-07-31T17:31:27.847Z,100140.00
2023-07-31T17:33:59.507Z,100141.91
2023-07-31T17:36:33.201Z,100147.59
2023-07-31T17:39:05.341Z,100141.06
2023-07-31T17:41:36.900Z,100147.41
2023-07-31T17:44:08.543Z,100156.88
2023-07-31T17:46:40.536Z,100138.09
2023-07-31T17:49:12.530Z,100143.16
2023-07-31T17:51:44.070Z,100158.78
2023-07-31T17:54:15.671Z,100154.75
2023-07-31T17:56:47.212Z,100146.91
2023-07-31T17:59:18.829Z,100135.50
2023-07-31T18:01:50.566Z,100140.16
2023-07-31T18:04:22.219Z,100125.78
2023-07-31T18:06:53.771Z,100135.69
2023-07-31T18:09:25.318Z,100131.47
2023-07-31T18:11:57.995Z,100120.78
2023-07-31T18:14:29.565Z,100115.94
2023-07-31T18:17:01.785Z,100114.63
2023-07-31T18:19:33.617Z,100102.97
2023-07-31T18:22:05.225Z,100108.84
2023-07-31T18:24:36.848Z,100116.81
2023-07-31T18:27:09.034Z,100119.72
2023-07-31T18:29:41.417Z,100115.50
2023-07-31T18:32:13.737Z,100113.16
2023-07-31T18:34:45.373Z,100106.63
2023-07-31T18:37:17.003Z,100099.25
2023-07-31T18:39:48.767Z,100104.94
2023-07-31T18:42:20.413Z,100101.97
2023-07-31T18:44:52.087Z,100101.34
2023-07-31T18:47:23.598Z,100092.66
2023-07-31T18:49:55.330Z,100088.84
2023-07-31T18:52:26.949Z,100095.41
2023-07-31T18:54:58.652Z,100088.22
2023-07-31T18:57:30.256Z,100089.47
2023-07-31T19:00:02.140Z,100079.56
2023-07-31T19:02:33.867Z,100090.72
2023-07-31T19:05:05.928Z,100080.56
2023-07-31T19:07:37.602Z,100077.19
2023-07-31T19:10:16.555Z,100076.34
2023-07-31T19:12:48.926Z,100072.56
2023-07-31T19:15:20.486Z,100069.19
2023-07-31T19:17:52.162Z,100069.75
2023-07-31T19:20:23.733Z,100062.81
2023-07-31T19:22:55.421Z,100073.13
2023-07-31T19:25:27.095Z,100058.31
2023-07-31T19:27:58.960Z,100065.91
2023-07-31T19:30:30.574Z,100053.63
2023-07-31T19:33:02.270Z,100049.56
2023-07-31T19:35:34.048Z,100048.06
2023-07-31T19:38:05.653Z,100039.13
2023-07-31T19:40:37.293Z,100024.78
2023-07-31T19:43:08.935Z,100028.78
2023-07-31T19:45:40.590Z,100023.31
2023-07-31T19:48:12.198Z,100029.22
2023-07-31T19:50:44.023Z,100023.31
2023-07-31T19:53:15.735Z,100018.69
2023-07-31T19:55:48.760Z,100014.88
2023-07-31T19:58:20.552Z,100027.09
2023-07-31T20:00:54.748Z,100030.91
2023-07-31T20:03:26.365Z,100038.91
2023-07-31T20:05:58.068Z,100023.53
2023-07-31T20:08:29.830Z,100026.25
2023-07-31T20:11:01.475Z,100027.94
2023-07-31T20:13:33.547Z,100035.13
2023-07-31T20:16:05.252Z,100039.75
2023-07-31T20:18:38.890Z,100043.53
2023-07-31T20:21:11.136Z,100046.28
2023-07-31T20:23:43.894Z,100041.00
2023-07-31T20:26:15.946Z,100021.16
2023-07-31T20:28:47.706Z,100017.56
2023-07-31T20:31:19.266Z,100008.31
2023-07-31T20:33:51.143Z,100000.50
2023-07-31T20:36:22.780Z,99973.94
2023-07-31T20:38:54.311Z,99957.50
2023-07-31T20:41:25.945Z,99931.09
2023-07-31T20:43:57.976Z,99920.75
2023-07-31T20:46:29.662Z,99915.28
2023-07-31T20:49:01.366Z,99927.91
2023-07-31T20:51:33.522Z,99929.59
2023-07-31T20:54:05.956Z,99928.56
2023-07-31T20:56:37.921Z,99933.84
2023-07-31T20:59:10.617Z,99923.72
2023-07-31T21:01:43.659Z,99938.06
2023-07-31T21:04:16.050Z,99936.13
2023-07-31T21:06:47.792Z,99930.66
2023-07-31T21:09:19.336Z,99933.56
2023-07-31T21:11:51.111Z,99911.22
2023-07-31T21:14:22.788Z,99908.22
2023-07-31T21:16:54.466Z,99911.81
2023-07-31T21:19:26.047Z,99906.75
2023-07-31T21:21:57.827Z,99904.41
2023-07-31T21:24:29.425Z,99896.16
2023-07-31T21:27:01.112Z,99907.09
2023-07-31T21:29:32.764Z,99892.78
2023-07-31T21:32:04.897Z,99891.41
2023-07-31T21:34:36.740Z,99890.56
2023-07-31T21:37:09.904Z,99885.88
2023-07-31T21:39:41.614Z,99885.84
2023-07-31T21:42:13.231Z,99877.78
2023-07-31T21:44:44.905Z,99875.56
2023-07-31T21:47:18.210Z,99879.28
2023-07-31T21:49:50.012Z,99875.47
2023-07-31T21:52:21.693Z,99870.00
2023-07-31T21:54:53.458Z,99868.66
2023-07-31T21:57:25.021Z,99865.91
2023-07-31T21:59:56.614Z,99866.13
2023-07-31T22:02:28.295Z,99859.16
2023-07-31T22:05:00.171Z,99846.06
2023-07-31T22:07:31.802Z,99857.06
2023-07-31T22:10:03.706Z,99850.97
2023-07-31T22:12:35.491Z,99842.47
2023-07-31T22:15:07.756Z,99841.00
2023-07-31T22:17:39.425Z,99831.75
2023-07-31T22:20:11.505Z,99835.31
2023-07-31T22:22:43.263Z,99831.34
2023-07-31T22:25:14.888Z,99844.44
2023-07-31T22:27:46.516Z,99833.09
2023-07-31T22:30:18.160Z,99828.66
2023-07-31T22:32:49.834Z,99825.75
2023-07-31T22:35:21.604Z,99824.50
2023-07-31T22:37:53.547Z,99825.19
2023-07-31T22:40:25.200Z,99819.72
2023-07-31T22:42:58.034Z,99809.19
2023-07-31T22:45:29.789Z,99812.56
2023-07-31T22:48:01.370Z,99813.25
2023-07-31T22:50:33.025Z,99807.78
2023-07-31T22:53:04.769Z,99801.69
2023-07-31T22:55:36.458Z,99792.25
2023-07-31T22:58:08.059Z,99783.84
2023-07-31T23:00:39.697Z,99788.25
2023-07-31T23:03:11.383Z,99785.72
2023-07-31T23:05:44.797Z,99781.31
2023-07-31T23:08:16.339Z,99784.03
2023-07-31T23:10:51.414Z,99779.59
2023-07-31T23:13:23.661Z,99777.91
2023-07-31T23:15:55.275Z,99772.63
2023-07-31T23:18:26.984Z,99771.56
2023-07-31T23:20:58.745Z,99762.94
2023-07-31T23:23:30.628Z,99758.06
2023-07-31T23:26:02.336Z,99754.88
2023-07-31T23:28:33.934Z,99750.03
2023-07-31T23:31:05.912Z,99750.91
2023-07-31T23:33:37.516Z,99747.75
2023-07-31T23:36:13.091Z,99746.53
2023-07-31T23:38:44.639Z,99743.56
2023-07-31T23:41:18.076Z,99736.22
2023-07-31T23:43:49.601Z,99739.16
2023-07-31T23:46:21.500Z,99744.22
2023-07-31T23:48:53.094Z,99727.78
2023-07-31T23:51:24.674Z,99724.22
2023-07-31T23:53:56.669Z,99716.00
2023-07-31T23:56:28.282Z,99710.75
2023-07-31T23:59:00.096Z,99709.47
